sensor_id;sensor_type;location;lat;lon;timestamp;P1;durP1;ratioP1;P2;durP2;ratioP2
51030;SDS011;37058;41.442;23.240;2023-06-10T12:26:48;4.57;;;2.53;;
51030;SDS011;37058;41.442;23.240;2023-06-10T12:34:32;3.58;;;2.03;;
51030;SDS011;37058;41.442;23.240;2023-06-10T12:36:59;3.38;;;2.30;;
51030;SDS011;37058;41.442;23.240;2023-06-10T12:39:26;6.13;;;2.47;;
51030;SDS011;37058;41.442;23.240;2023-06-10T12:41:52;4.07;;;2.38;;
51030;SDS011;37058;41.442;23.240;2023-06-10T12:44:18;5.22;;;3.00;;
51030;SDS011;37058;41.442;23.240;2023-06-10T12:46:56;4.57;;;2.90;;
51030;SDS011;37058;41.442;23.240;2023-06-10T12:49:22;3.70;;;2.63;;
51030;SDS011;37058;41.442;23.240;2023-06-10T12:51:48;5.50;;;2.85;;
51030;SDS011;37058;41.442;23.240;2023-06-10T12:54:14;3.80;;;2.58;;
51030;SDS011;37058;41.442;23.240;2023-06-10T12:56:40;4.75;;;2.63;;
51030;SDS011;37058;41.442;23.240;2023-06-10T12:59:06;6.35;;;2.28;;
51030;SDS011;37058;41.442;23.240;2023-06-10T13:01:31;3.95;;;2.88;;
51030;SDS011;37058;41.442;23.240;2023-06-10T13:03:58;3.63;;;2.60;;
51030;SDS011;37058;41.442;23.240;2023-06-10T13:06:24;3.70;;;2.28;;
51030;SDS011;37058;41.442;23.240;2023-06-10T13:08:50;5.20;;;3.47;;
51030;SDS011;37058;41.442;23.240;2023-06-10T13:11:17;3.70;;;2.70;;
51030;SDS011;37058;41.442;23.240;2023-06-10T13:13:42;2.55;;;2.00;;
51030;SDS011;37058;41.442;23.240;2023-06-10T13:16:08;5.18;;;2.33;;
51030;SDS011;37058;41.442;23.240;2023-06-10T13:18:34;3.10;;;1.80;;
51030;SDS011;37058;41.442;23.240;2023-06-10T13:21:05;2.92;;;2.20;;
51030;SDS011;37058;41.442;23.240;2023-06-10T13:23:31;3.13;;;2.35;;
51030;SDS011;37058;41.442;23.240;2023-06-10T13:33:46;3.35;;;2.45;;
51030;SDS011;37058;41.442;23.240;2023-06-10T13:36:12;4.07;;;2.33;;
51030;SDS011;37058;41.442;23.240;2023-06-10T13:38:38;2.95;;;2.08;;
51030;SDS011;37058;41.442;23.240;2023-06-10T13:41:04;3.05;;;1.98;;
51030;SDS011;37058;41.442;23.240;2023-06-10T13:43:31;2.97;;;1.85;;
51030;SDS011;37058;41.442;23.240;2023-06-10T13:45:57;5.18;;;1.60;;
51030;SDS011;37058;41.442;23.240;2023-06-10T13:48:23;10.07;;;2.35;;
51030;SDS011;37058;41.442;23.240;2023-06-10T13:50:49;2.83;;;1.92;;
51030;SDS011;37058;41.442;23.240;2023-06-10T13:53:15;2.83;;;1.92;;
51030;SDS011;37058;41.442;23.240;2023-06-10T13:55:41;6.57;;;2.28;;
51030;SDS011;37058;41.442;23.240;2023-06-10T13:58:06;5.50;;;2.03;;
51030;SDS011;37058;41.442;23.240;2023-06-10T14:00:32;4.53;;;2.03;;
51030;SDS011;37058;41.442;23.240;2023-06-10T14:02:58;3.28;;;2.13;;
51030;SDS011;37058;41.442;23.240;2023-06-10T14:05:24;4.13;;;2.78;;
51030;SDS011;37058;41.442;23.240;2023-06-10T14:07:50;4.93;;;2.30;;
51030;SDS011;37058;41.442;23.240;2023-06-10T14:10:16;5.03;;;2.10;;
51030;SDS011;37058;41.442;23.240;2023-06-10T14:12:41;4.10;;;2.60;;
51030;SDS011;37058;41.442;23.240;2023-06-10T14:15:07;7.97;;;2.83;;
51030;SDS011;37058;41.442;23.240;2023-06-10T14:17:33;10.07;;;2.67;;
51030;SDS011;37058;41.442;23.240;2023-06-10T14:19:59;5.03;;;2.38;;
51030;SDS011;37058;41.442;23.240;2023-06-10T14:22:25;5.88;;;2.85;;
51030;SDS011;37058;41.442;23.240;2023-06-10T14:24:51;3.35;;;2.15;;
51030;SDS011;37058;41.442;23.240;2023-06-10T14:27:17;3.50;;;2.25;;
51030;SDS011;37058;41.442;23.240;2023-06-10T14:29:42;4.55;;;2.35;;
51030;SDS011;37058;41.442;23.240;2023-06-10T14:32:08;2.63;;;1.88;;
51030;SDS011;37058;41.442;23.240;2023-06-10T14:34:34;3.78;;;2.55;;
51030;SDS011;37058;41.442;23.240;2023-06-10T14:37:00;5.18;;;2.05;;
51030;SDS011;37058;41.442;23.240;2023-06-10T14:39:28;4.25;;;2.10;;
51030;SDS011;37058;41.442;23.240;2023-06-10T14:41:54;3.17;;;2.00;;
51030;SDS011;37058;41.442;23.240;2023-06-10T14:44:19;3.25;;;2.10;;
51030;SDS011;37058;41.442;23.240;2023-06-10T14:46:45;4.07;;;2.10;;
51030;SDS011;37058;41.442;23.240;2023-06-10T14:49:11;3.63;;;2.55;;
51030;SDS011;37058;41.442;23.240;2023-06-10T14:51:38;3.20;;;2.22;;
51030;SDS011;37058;41.442;23.240;2023-06-10T14:54:04;3.28;;;2.30;;
51030;SDS011;37058;41.442;23.240;2023-06-10T14:56:29;3.45;;;2.25;;
51030;SDS011;37058;41.442;23.240;2023-06-10T14:58:55;4.97;;;2.47;;
51030;SDS011;37058;41.442;23.240;2023-06-10T15:01:21;5.00;;;2.85;;
51030;SDS011;37058;41.442;23.240;2023-06-10T15:03:47;3.80;;;2.63;;
51030;SDS011;37058;41.442;23.240;2023-06-10T15:06:13;5.63;;;2.22;;
51030;SDS011;37058;41.442;23.240;2023-06-10T15:08:42;4.68;;;3.00;;
51030;SDS011;37058;41.442;23.240;2023-06-10T15:11:07;6.63;;;2.70;;
51030;SDS011;37058;41.442;23.240;2023-06-10T15:13:33;5.68;;;2.63;;
51030;SDS011;37058;41.442;23.240;2023-06-10T15:15:59;7.03;;;3.10;;
51030;SDS011;37058;41.442;23.240;2023-06-10T15:18:25;5.43;;;2.72;;
51030;SDS011;37058;41.442;23.240;2023-06-10T15:20:51;3.75;;;2.78;;
51030;SDS011;37058;41.442;23.240;2023-06-10T15:23:16;3.85;;;2.50;;
51030;SDS011;37058;41.442;23.240;2023-06-10T15:25:42;5.20;;;2.50;;
51030;SDS011;37058;41.442;23.240;2023-06-10T15:28:09;7.65;;;2.50;;
51030;SDS011;37058;41.442;23.240;2023-06-10T15:30:34;5.53;;;2.45;;
51030;SDS011;37058;41.442;23.240;2023-06-10T15:33:02;4.55;;;1.90;;
51030;SDS011;37058;41.442;23.240;2023-06-10T15:35:31;4.97;;;2.38;;
51030;SDS011;37058;41.442;23.240;2023-06-10T15:37:57;3.78;;;2.13;;
51030;SDS011;37058;41.442;23.240;2023-06-10T16:02:30;2.90;;;1.95;;
51030;SDS011;37058;41.442;23.240;2023-06-10T16:04:56;3.20;;;2.20;;
51030;SDS011;37058;41.442;23.240;2023-06-10T16:07:22;4.32;;;2.08;;
51030;SDS011;37058;41.442;23.240;2023-06-10T16:09:48;4.18;;;2.10;;
51030;SDS011;37058;41.442;23.240;2023-06-10T16:12:14;4.65;;;2.67;;
51030;SDS011;37058;41.442;23.240;2023-06-10T16:14:39;5.13;;;2.05;;
51030;SDS011;37058;41.442;23.240;2023-06-10T16:17:05;3.22;;;2.05;;
51030;SDS011;37058;41.442;23.240;2023-06-10T16:19:31;6.85;;;4.50;;
51030;SDS011;37058;41.442;23.240;2023-06-10T16:21:57;6.53;;;3.15;;
51030;SDS011;37058;41.442;23.240;2023-06-10T16:24:23;3.80;;;2.25;;
51030;SDS011;37058;41.442;23.240;2023-06-10T16:26:49;4.47;;;2.92;;
51030;SDS011;37058;41.442;23.240;2023-06-10T16:29:15;12.13;;;5.00;;
51030;SDS011;37058;41.442;23.240;2023-06-10T16:31:41;7.03;;;3.75;;
51030;SDS011;37058;41.442;23.240;2023-06-10T16:34:07;5.88;;;3.38;;
51030;SDS011;37058;41.442;23.240;2023-06-10T16:36:33;13.18;;;3.20;;
51030;SDS011;37058;41.442;23.240;2023-06-10T16:38:59;4.78;;;3.38;;
51030;SDS011;37058;41.442;23.240;2023-06-10T16:41:25;4.97;;;3.20;;
51030;SDS011;37058;41.442;23.240;2023-06-10T16:43:50;6.07;;;2.72;;
51030;SDS011;37058;41.442;23.240;2023-06-10T16:46:16;6.22;;;3.00;;
51030;SDS011;37058;41.442;23.240;2023-06-10T16:48:42;4.40;;;3.10;;
51030;SDS011;37058;41.442;23.240;2023-06-10T16:51:09;5.03;;;3.20;;
51030;SDS011;37058;41.442;23.240;2023-06-10T16:53:35;5.10;;;3.33;;
51030;SDS011;37058;41.442;23.240;2023-06-10T16:56:01;5.78;;;2.90;;
51030;SDS011;37058;41.442;23.240;2023-06-10T16:58:27;8.18;;;4.13;;
51030;SDS011;37058;41.442;23.240;2023-06-10T17:00:53;6.22;;;3.90;;
51030;SDS011;37058;41.442;23.240;2023-06-10T17:05:48;6.88;;;3.63;;
51030;SDS011;37058;41.442;23.240;2023-06-10T17:08:14;5.20;;;3.60;;
51030;SDS011;37058;41.442;23.240;2023-06-10T17:10:40;6.28;;;3.13;;
51030;SDS011;37058;41.442;23.240;2023-06-10T17:13:06;4.53;;;3.30;;
51030;SDS011;37058;41.442;23.240;2023-06-10T17:15:32;4.72;;;3.38;;
51030;SDS011;37058;41.442;23.240;2023-06-10T17:17:57;4.07;;;3.10;;
51030;SDS011;37058;41.442;23.240;2023-06-10T17:20:23;6.68;;;2.85;;
51030;SDS011;37058;41.442;23.240;2023-06-10T17:22:49;4.35;;;3.25;;
51030;SDS011;37058;41.442;23.240;2023-06-10T17:25:15;5.22;;;3.28;;
51030;SDS011;37058;41.442;23.240;2023-06-10T17:27:41;5.35;;;3.17;;
51030;SDS011;37058;41.442;23.240;2023-06-10T17:30:07;5.03;;;2.92;;
51030;SDS011;37058;41.442;23.240;2023-06-10T17:32:33;4.53;;;3.40;;
51030;SDS011;37058;41.442;23.240;2023-06-10T17:34:59;5.72;;;3.00;;
51030;SDS011;37058;41.442;23.240;2023-06-10T17:37:25;5.65;;;3.50;;
51030;SDS011;37058;41.442;23.240;2023-06-10T17:39:51;5.38;;;3.05;;
51030;SDS011;37058;41.442;23.240;2023-06-10T17:42:17;5.53;;;3.50;;
51030;SDS011;37058;41.442;23.240;2023-06-10T17:44:43;5.53;;;3.38;;
51030;SDS011;37058;41.442;23.240;2023-06-10T17:47:08;7.38;;;3.95;;
51030;SDS011;37058;41.442;23.240;2023-06-10T17:49:35;6.85;;;3.55;;
51030;SDS011;37058;41.442;23.240;2023-06-10T17:52:00;5.82;;;3.53;;
51030;SDS011;37058;41.442;23.240;2023-06-10T17:54:26;4.22;;;2.97;;
51030;SDS011;37058;41.442;23.240;2023-06-10T17:56:54;6.82;;;2.95;;
51030;SDS011;37058;41.442;23.240;2023-06-10T17:59:20;5.60;;;3.25;;
51030;SDS011;37058;41.442;23.240;2023-06-10T18:01:45;4.85;;;3.70;;
51030;SDS011;37058;41.442;23.240;2023-06-10T18:04:11;6.50;;;3.55;;
51030;SDS011;37058;41.442;23.240;2023-06-10T18:06:37;6.22;;;3.35;;
51030;SDS011;37058;41.442;23.240;2023-06-10T18:09:04;4.55;;;3.53;;
51030;SDS011;37058;41.442;23.240;2023-06-10T18:11:30;10.75;;;4.28;;
51030;SDS011;37058;41.442;23.240;2023-06-10T18:13:56;6.20;;;3.83;;
51030;SDS011;37058;41.442;23.240;2023-06-10T18:16:21;3.60;;;3.13;;
51030;SDS011;37058;41.442;23.240;2023-06-10T18:18:47;4.88;;;3.78;;
51030;SDS011;37058;41.442;23.240;2023-06-10T18:21:14;5.07;;;3.97;;
51030;SDS011;37058;41.442;23.240;2023-06-10T18:23:40;6.03;;;3.85;;
51030;SDS011;37058;41.442;23.240;2023-06-10T18:26:06;5.80;;;4.13;;
51030;SDS011;37058;41.442;23.240;2023-06-10T18:28:32;6.78;;;5.13;;
51030;SDS011;37058;41.442;23.240;2023-06-10T18:30:58;6.10;;;5.30;;
51030;SDS011;37058;41.442;23.240;2023-06-10T18:33:26;4.85;;;4.03;;
51030;SDS011;37058;41.442;23.240;2023-06-10T18:35:52;7.45;;;4.63;;
51030;SDS011;37058;41.442;23.240;2023-06-10T18:38:18;6.38;;;4.32;;
51030;SDS011;37058;41.442;23.240;2023-06-10T18:40:44;8.23;;;4.95;;
51030;SDS011;37058;41.442;23.240;2023-06-10T18:43:12;8.20;;;5.35;;
51030;SDS011;37058;41.442;23.240;2023-06-10T18:45:38;6.30;;;4.45;;
51030;SDS011;37058;41.442;23.240;2023-06-10T18:48:05;7.85;;;5.22;;
51030;SDS011;37058;41.442;23.240;2023-06-10T18:50:31;7.68;;;5.25;;
51030;SDS011;37058;41.442;23.240;2023-06-10T18:52:56;9.60;;;5.88;;
51030;SDS011;37058;41.442;23.240;2023-06-10T18:55:23;10.35;;;7.38;;
51030;SDS011;37058;41.442;23.240;2023-06-10T18:57:49;14.68;;;10.00;;
51030;SDS011;37058;41.442;23.240;2023-06-10T19:00:15;24.80;;;13.32;;
51030;SDS011;37058;41.442;23.240;2023-06-10T19:02:41;68.07;;;30.05;;
51030;SDS011;37058;41.442;23.240;2023-06-10T19:05:09;598.05;;;270.08;;
51030;SDS011;37058;41.442;23.240;2023-06-10T19:07:37;405.05;;;173.68;;
51030;SDS011;37058;41.442;23.240;2023-06-10T19:10:04;288.27;;;135.20;;
51030;SDS011;37058;41.442;23.240;2023-06-10T19:12:30;330.23;;;157.05;;
51030;SDS011;37058;41.442;23.240;2023-06-10T19:14:56;139.88;;;64.72;;
51030;SDS011;37058;41.442;23.240;2023-06-10T19:17:22;121.28;;;52.67;;
51030;SDS011;37058;41.442;23.240;2023-06-10T19:19:48;17.27;;;11.75;;
51030;SDS011;37058;41.442;23.240;2023-06-10T19:22:14;8.10;;;4.35;;
51030;SDS011;37058;41.442;23.240;2023-06-10T19:24:40;5.32;;;3.65;;
51030;SDS011;37058;41.442;23.240;2023-06-10T19:27:08;4.10;;;3.10;;
51030;SDS011;37058;41.442;23.240;2023-06-10T19:29:33;5.60;;;3.65;;
51030;SDS011;37058;41.442;23.240;2023-06-10T19:31:59;6.18;;;3.50;;
51030;SDS011;37058;41.442;23.240;2023-06-10T19:34:25;6.55;;;3.35;;
51030;SDS011;37058;41.442;23.240;2023-06-10T19:36:51;5.22;;;3.00;;
51030;SDS011;37058;41.442;23.240;2023-06-10T19:39:17;7.40;;;3.40;;
51030;SDS011;37058;41.442;23.240;2023-06-10T19:41:43;6.30;;;4.03;;
51030;SDS011;37058;41.442;23.240;2023-06-10T19:44:09;7.70;;;3.45;;
51030;SDS011;37058;41.442;23.240;2023-06-10T19:46:37;4.50;;;3.25;;
51030;SDS011;37058;41.442;23.240;2023-06-10T19:49:02;5.10;;;3.90;;
51030;SDS011;37058;41.442;23.240;2023-06-10T19:51:28;6.35;;;3.78;;
51030;SDS011;37058;41.442;23.240;2023-06-10T19:53:54;6.50;;;3.40;;
51030;SDS011;37058;41.442;23.240;2023-06-10T19:56:20;5.32;;;3.10;;
51030;SDS011;37058;41.442;23.240;2023-06-10T19:58:50;6.57;;;3.53;;
51030;SDS011;37058;41.442;23.240;2023-06-10T20:01:16;4.05;;;2.75;;
51030;SDS011;37058;41.442;23.240;2023-06-10T20:03:43;6.55;;;3.50;;
51030;SDS011;37058;41.442;23.240;2023-06-10T20:06:09;9.07;;;3.47;;
51030;SDS011;37058;41.442;23.240;2023-06-10T20:08:35;6.53;;;3.78;;
51030;SDS011;37058;41.442;23.240;2023-06-10T20:11:01;4.55;;;3.10;;
51030;SDS011;37058;41.442;23.240;2023-06-10T20:13:27;4.15;;;3.50;;
51030;SDS011;37058;41.442;23.240;2023-06-10T20:15:54;4.63;;;3.20;;
51030;SDS011;37058;41.442;23.240;2023-06-10T20:18:20;7.82;;;3.40;;
51030;SDS011;37058;41.442;23.240;2023-06-10T20:20:46;6.22;;;3.20;;
51030;SDS011;37058;41.442;23.240;2023-06-10T20:23:12;8.30;;;3.50;;
51030;SDS011;37058;41.442;23.240;2023-06-10T20:25:38;4.60;;;2.95;;
51030;SDS011;37058;41.442;23.240;2023-06-10T20:28:04;7.05;;;3.70;;
51030;SDS011;37058;41.442;23.240;2023-06-10T20:30:29;5.07;;;3.50;;
51030;SDS011;37058;41.442;23.240;2023-06-10T20:32:57;9.90;;;4.97;;
51030;SDS011;37058;41.442;23.240;2023-06-10T20:35:24;10.48;;;5.10;;
51030;SDS011;37058;41.442;23.240;2023-06-10T20:37:50;6.68;;;3.92;;
51030;SDS011;37058;41.442;23.240;2023-06-10T20:40:16;5.95;;;3.67;;
51030;SDS011;37058;41.442;23.240;2023-06-10T20:42:42;5.70;;;3.63;;
51030;SDS011;37058;41.442;23.240;2023-06-10T20:45:08;8.57;;;4.57;;
51030;SDS011;37058;41.442;23.240;2023-06-10T20:47:34;6.45;;;4.75;;
51030;SDS011;37058;41.442;23.240;2023-06-10T20:50:01;6.40;;;3.55;;
51030;SDS011;37058;41.442;23.240;2023-06-10T20:52:28;5.90;;;3.70;;
51030;SDS011;37058;41.442;23.240;2023-06-10T20:54:54;7.22;;;3.97;;
51030;SDS011;37058;41.442;23.240;2023-06-10T20:57:20;8.68;;;4.65;;
51030;SDS011;37058;41.442;23.240;2023-06-10T20:59:47;6.82;;;3.63;;
51030;SDS011;37058;41.442;23.240;2023-06-10T21:02:12;5.13;;;3.53;;
51030;SDS011;37058;41.442;23.240;2023-06-10T21:04:38;10.00;;;3.38;;
51030;SDS011;37058;41.442;23.240;2023-06-10T21:07:04;4.50;;;3.45;;
51030;SDS011;37058;41.442;23.240;2023-06-10T21:12:12;5.97;;;3.67;;
51030;SDS011;37058;41.442;23.240;2023-06-10T21:14:38;6.40;;;3.88;;
51030;SDS011;37058;41.442;23.240;2023-06-10T21:17:04;7.03;;;4.10;;
51030;SDS011;37058;41.442;23.240;2023-06-10T21:19:31;4.72;;;3.88;;
51030;SDS011;37058;41.442;23.240;2023-06-10T21:21:56;6.63;;;3.83;;
51030;SDS011;37058;41.442;23.240;2023-06-10T21:24:23;4.65;;;3.05;;
51030;SDS011;37058;41.442;23.240;2023-06-10T21:26:48;6.25;;;3.45;;
51030;SDS011;37058;41.442;23.240;2023-06-10T21:29:14;5.10;;;3.67;;
51030;SDS011;37058;41.442;23.240;2023-06-10T21:31:40;6.30;;;3.35;;
51030;SDS011;37058;41.442;23.240;2023-06-10T21:34:07;8.68;;;3.60;;
51030;SDS011;37058;41.442;23.240;2023-06-10T21:36:32;7.68;;;4.32;;
51030;SDS011;37058;41.442;23.240;2023-06-10T21:38:58;4.25;;;2.92;;
51030;SDS011;37058;41.442;23.240;2023-06-10T21:41:24;7.68;;;3.63;;
51030;SDS011;37058;41.442;23.240;2023-06-10T21:43:54;6.88;;;3.20;;
51030;SDS011;37058;41.442;23.240;2023-06-10T21:46:20;9.55;;;3.78;;
51030;SDS011;37058;41.442;23.240;2023-06-10T21:48:47;4.55;;;3.20;;
51030;SDS011;37058;41.442;23.240;2023-06-10T21:51:13;5.57;;;3.03;;
51030;SDS011;37058;41.442;23.240;2023-06-10T21:53:39;4.90;;;3.42;;
51030;SDS011;37058;41.442;23.240;2023-06-10T21:56:05;8.35;;;3.20;;
51030;SDS011;37058;41.442;23.240;2023-06-10T21:58:31;6.70;;;3.20;;
51030;SDS011;37058;41.442;23.240;2023-06-10T22:00:57;10.65;;;3.33;;
51030;SDS011;37058;41.442;23.240;2023-06-10T22:03:22;9.00;;;3.45;;
51030;SDS011;37058;41.442;23.240;2023-06-10T22:05:48;6.45;;;3.95;;
51030;SDS011;37058;41.442;23.240;2023-06-10T22:08:14;7.25;;;3.20;;
51030;SDS011;37058;41.442;23.240;2023-06-10T22:10:41;9.75;;;3.38;;
51030;SDS011;37058;41.442;23.240;2023-06-10T22:13:07;8.75;;;3.60;;
51030;SDS011;37058;41.442;23.240;2023-06-10T22:15:36;8.23;;;3.50;;
51030;SDS011;37058;41.442;23.240;2023-06-10T22:18:04;8.45;;;5.90;;
51030;SDS011;37058;41.442;23.240;2023-06-10T22:20:31;6.30;;;3.40;;
51030;SDS011;37058;41.442;23.240;2023-06-10T22:22:56;6.65;;;2.95;;
51030;SDS011;37058;41.442;23.240;2023-06-10T22:25:22;8.52;;;3.40;;
51030;SDS011;37058;41.442;23.240;2023-06-10T22:27:48;5.78;;;3.47;;
51030;SDS011;37058;41.442;23.240;2023-06-10T22:30:14;5.43;;;3.35;;
51030;SDS011;37058;41.442;23.240;2023-06-10T22:32:40;7.10;;;3.67;;
51030;SDS011;37058;41.442;23.240;2023-06-10T22:35:06;5.43;;;3.50;;
51030;SDS011;37058;41.442;23.240;2023-06-10T22:37:35;6.57;;;3.47;;
51030;SDS011;37058;41.442;23.240;2023-06-10T22:40:01;4.60;;;3.10;;
51030;SDS011;37058;41.442;23.240;2023-06-10T22:42:28;6.05;;;3.03;;
51030;SDS011;37058;41.442;23.240;2023-06-10T22:44:54;6.43;;;2.88;;
51030;SDS011;37058;41.442;23.240;2023-06-10T22:47:20;5.38;;;2.83;;
51030;SDS011;37058;41.442;23.240;2023-06-10T22:49:45;4.53;;;2.40;;
51030;SDS011;37058;41.442;23.240;2023-06-10T22:52:11;5.50;;;2.95;;
51030;SDS011;37058;41.442;23.240;2023-06-10T22:54:37;5.35;;;2.58;;
51030;SDS011;37058;41.442;23.240;2023-06-10T22:57:03;6.95;;;3.60;;
51030;SDS011;37058;41.442;23.240;2023-06-10T22:59:30;5.10;;;3.22;;
51030;SDS011;37058;41.442;23.240;2023-06-10T23:01:56;12.07;;;3.20;;
51030;SDS011;37058;41.442;23.240;2023-06-10T23:04:21;6.15;;;2.88;;
51030;SDS011;37058;41.442;23.240;2023-06-10T23:06:47;7.78;;;3.22;;
51030;SDS011;37058;41.442;23.240;2023-06-10T23:09:13;6.15;;;3.42;;
51030;SDS011;37058;41.442;23.240;2023-06-10T23:11:39;4.65;;;3.20;;
51030;SDS011;37058;41.442;23.240;2023-06-10T23:14:06;8.65;;;3.25;;
51030;SDS011;37058;41.442;23.240;2023-06-10T23:16:37;5.38;;;3.17;;
51030;SDS011;37058;41.442;23.240;2023-06-10T23:19:10;7.13;;;3.25;;
51030;SDS011;37058;41.442;23.240;2023-06-10T23:21:47;8.95;;;3.40;;
51030;SDS011;37058;41.442;23.240;2023-06-10T23:24:18;7.93;;;3.22;;
51030;SDS011;37058;41.442;23.240;2023-06-10T23:26:57;5.60;;;3.63;;
51030;SDS011;37058;41.442;23.240;2023-06-10T23:29:25;7.40;;;3.10;;
51030;SDS011;37058;41.442;23.240;2023-06-10T23:31:52;6.25;;;3.92;;
51030;SDS011;37058;41.442;23.240;2023-06-10T23:34:19;6.57;;;3.85;;
51030;SDS011;37058;41.442;23.240;2023-06-10T23:36:46;5.82;;;3.70;;
51030;SDS011;37058;41.442;23.240;2023-06-10T23:39:12;7.28;;;3.75;;
51030;SDS011;37058;41.442;23.240;2023-06-10T23:41:39;21.00;;;4.65;;
51030;SDS011;37058;41.442;23.240;2023-06-10T23:44:06;6.63;;;4.18;;
51030;SDS011;37058;41.442;23.240;2023-06-10T23:46:33;6.40;;;3.60;;
51030;SDS011;37058;41.442;23.240;2023-06-10T23:49:00;6.45;;;3.28;;
51030;SDS011;37058;41.442;23.240;2023-06-10T23:51:26;5.38;;;3.05;;
51030;SDS011;37058;41.442;23.240;2023-06-10T23:53:52;5.93;;;4.03;;
51030;SDS011;37058;41.442;23.240;2023-06-10T23:56:21;9.27;;;4.47;;
51030;SDS011;37058;41.442;23.240;2023-06-10T23:58:48;8.57;;;4.80;;
